Time,TemperatureF,DewpointF,PressureIn,WindDirection,WindDirectionDegrees,WindSpeedMPH,WindSpeedGustMPH,Humidity,HourlyPrecipIn,Conditions,Clouds,dailyrainin,SoftwareType,DateUTC
2013-05-24 00:00:00,67.5,66.0,30.06,West,264,0.0,-999.0,93,-99.99,,,0.15,weatherlink.com 1.10,2013-05-24 05:00:00,
2013-05-24 00:15:00,67.3,66.0,30.05,SSW,202,0.0,-999.0,94,-99.99,,,0.00,weatherlink.com 1.10,2013-05-24 05:15:00,
2013-05-24 00:30:00,67.2,66.0,30.05,SSW,203,0.0,-999.0,94,-99.99,,,0.00,weatherlink.com 1.10,2013-05-24 05:30:00,
2013-05-24 00:45:00,67.0,65.0,30.05,SSW,203,0.0,-999.0,94,-99.99,,,0.00,weatherlink.com 1.10,2013-05-24 05:45:00,
2013-05-24 01:00:00,66.8,65.0,30.05,SSW,203,0.0,-999.0,94,-99.99,,,0.00,weatherlink.com 1.10,2013-05-24 06:00:00,
2013-05-24 01:15:00,66.7,65.0,30.05,SSW,203,0.0,-999.0,94,-99.99,,,0.00,weatherlink.com 1.10,2013-05-24 06:15:00,
2013-05-24 01:30:00,66.6,65.0,30.05,SSW,203,0.0,-999.0,95,-99.99,,,0.00,weatherlink.com 1.10,2013-05-24 06:30:00,
2013-05-24 01:45:00,66.5,65.0,30.05,SSW,203,0.0,-999.0,95,-99.99,,,0.00,weatherlink.com 1.10,2013-05-24 06:45:00,
2013-05-24 02:00:00,66.4,65.0,30.04,SSW,203,0.0,-999.0,95,-99.99,,,0.00,weatherlink.com 1.10,2013-05-24 07:00:00,
2013-05-24 02:15:00,66.3,65.0,30.05,SSW,203,0.0,-999.0,95,-99.99,,,0.00,weatherlink.com 1.10,2013-05-24 07:15:00,
2013-05-24 02:30:00,66.2,65.0,30.05,SSW,203,0.0,-999.0,95,-99.99,,,0.00,weatherlink.com 1.10,2013-05-24 07:30:00,
2013-05-24 02:45:00,66.0,65.0,30.05,SSW,203,0.0,-999.0,95,-99.99,,,0.00,weatherlink.com 1.10,2013-05-24 07:45:00,
2013-05-24 03:00:00,65.9,65.0,30.06,SSW,203,0.0,-999.0,95,-99.99,,,0.00,weatherlink.com 1.10,2013-05-24 08:00:00,
2013-05-24 03:15:00,65.8,64.0,30.06,SSW,203,0.0,-999.0,95,-99.99,,,0.00,weatherlink.com 1.10,2013-05-24 08:15:00,
2013-05-24 03:30:00,65.7,64.0,30.06,SSW,203,0.0,-999.0,95,-99.99,,,0.00,weatherlink.com 1.10,2013-05-24 08:30:00,
2013-05-24 03:45:00,65.5,64.0,30.06,SSW,203,0.0,-999.0,95,-99.99,,,0.00,weatherlink.com 1.10,2013-05-24 08:45:00,
2013-05-24 04:01:00,65.6,64.0,30.06,SSW,203,0.0,-999.0,95,-99.99,,,0.00,weatherlink.com 1.10,2013-05-24 09:01:00,
2013-05-24 04:16:00,65.5,64.0,30.06,SSW,203,0.0,-999.0,96,-99.99,,,0.00,weatherlink.com 1.10,2013-05-24 09:16:00,
2013-05-24 04:31:00,65.6,65.0,30.06,SSW,203,0.0,-999.0,96,-99.99,,,0.00,weatherlink.com 1.10,2013-05-24 09:31:00,
2013-05-24 04:46:00,65.5,64.0,30.06,SSW,203,0.0,-999.0,96,-99.99,,,0.00,weatherlink.com 1.10,2013-05-24 09:46:00,
2013-05-24 05:01:00,65.3,64.0,30.07,SSW,203,0.0,-999.0,96,-99.99,,,0.00,weatherlink.com 1.10,2013-05-24 10:01:00,
2013-05-24 05:16:00,65.0,64.0,30.07,SSW,203,0.0,-999.0,96,-99.99,,,0.00,weatherlink.com 1.10,2013-05-24 10:16:00,
2013-05-24 05:31:00,64.9,64.0,30.08,SSW,203,0.0,-999.0,96,-99.99,,,0.00,weatherlink.com 1.10,2013-05-24 10:31:00,
2013-05-24 05:46:00,64.8,64.0,30.08,SSW,203,0.0,-999.0,96,-99.99,,,0.00,weatherlink.com 1.10,2013-05-24 10:46:00,
2013-05-24 06:01:00,64.7,64.0,30.09,SSW,203,0.0,-999.0,96,-99.99,,,0.00,weatherlink.com 1.10,2013-05-24 11:01:00,
2013-05-24 06:16:00,64.6,64.0,30.10,SSW,203,0.0,-999.0,96,-99.99,,,0.00,weatherlink.com 1.10,2013-05-24 11:16:00,
2013-05-24 06:31:00,64.7,64.0,30.11,SSW,203,0.0,-999.0,96,-99.99,,,0.00,weatherlink.com 1.10,2013-05-24 11:31:00,
2013-05-24 06:46:00,64.8,64.0,30.12,SSW,203,0.0,-999.0,96,-99.99,,,0.00,weatherlink.com 1.10,2013-05-24 11:46:00,
2013-05-24 07:01:00,64.9,64.0,30.12,SSW,203,0.0,-999.0,96,-99.99,,,0.00,weatherlink.com 1.10,2013-05-24 12:01:00,
2013-05-24 07:16:00,65.9,65.0,30.13,SSW,203,0.0,-999.0,97,-99.99,,,0.00,weatherlink.com 1.10,2013-05-24 12:16:00,
2013-05-24 07:31:00,67.0,66.0,30.13,SSW,203,0.0,-999.0,97,-99.99,,,0.00,weatherlink.com 1.10,2013-05-24 12:31:00,
2013-05-24 07:46:00,67.9,67.0,30.14,SSW,203,0.0,-999.0,97,-99.99,,,0.00,weatherlink.com 1.10,2013-05-24 12:46:00,
2013-05-24 08:01:00,68.9,68.0,30.14,SSW,203,0.0,-999.0,97,-99.99,,,0.00,weatherlink.com 1.10,2013-05-24 13:01:00,
2013-05-24 08:16:00,70.2,69.0,30.14,SSW,203,0.0,-999.0,97,-99.99,,,0.00,weatherlink.com 1.10,2013-05-24 13:16:00,
2013-05-24 08:31:00,71.6,70.0,30.14,SSW,203,0.0,-999.0,96,-99.99,,,0.00,weatherlink.com 1.10,2013-05-24 13:31:00,
2013-05-24 08:46:00,73.5,71.0,30.14,SSW,204,0.0,-999.0,91,-99.99,,,0.00,weatherlink.com 1.10,2013-05-24 13:46:00,
2013-05-24 09:01:00,76.5,71.0,30.14,SSW,200,0.0,-999.0,84,-99.99,,,0.00,weatherlink.com 1.10,2013-05-24 14:01:00,
2013-05-24 09:16:00,78.4,71.0,30.14,WSW,258,0.0,-999.0,79,-99.99,,,0.00,weatherlink.com 1.10,2013-05-24 14:16:00,
2013-05-24 09:31:00,80.7,72.0,30.15,WSW,258,0.0,-999.0,74,-99.99,,,0.00,weatherlink.com 1.10,2013-05-24 14:31:00,
2013-05-24 09:46:00,81.8,71.0,30.15,SE,130,0.0,-999.0,69,-99.99,,,0.00,weatherlink.com 1.10,2013-05-24 14:46:00,
2013-05-24 10:01:00,82.1,71.0,30.15,NE,34,2.0,-999.0,70,-99.99,,,0.00,weatherlink.com 1.10,2013-05-24 15:01:00,
2013-05-24 10:16:00,82.7,72.0,30.15,NE,34,0.0,-999.0,71,-99.99,,,0.00,weatherlink.com 1.10,2013-05-24 15:16:00,
2013-05-24 10:32:00,83.8,74.0,30.15,NE,43,0.0,-999.0,72,-99.99,,,0.00,weatherlink.com 1.10,2013-05-24 15:32:00,
2013-05-24 10:47:00,85.7,74.0,30.15,NE,45,0.0,-999.0,69,-99.99,,,0.00,weatherlink.com 1.10,2013-05-24 15:47:00,
2013-05-24 11:02:00,86.6,75.0,30.15,ENE,66,2.0,-999.0,68,-99.99,,,0.00,weatherlink.com 1.10,2013-05-24 16:02:00,
2013-05-24 11:17:00,86.8,76.0,30.15,ENE,61,1.0,-999.0,69,-99.99,,,0.00,weatherlink.com 1.10,2013-05-24 16:17:00,
2013-05-24 11:32:00,88.3,75.0,30.15,ENE,71,0.0,-999.0,65,-99.99,,,0.00,weatherlink.com 1.10,2013-05-24 16:32:00,
2013-05-24 11:47:00,89.2,75.0,30.15,East,98,2.0,-999.0,64,-99.99,,,0.00,weatherlink.com 1.10,2013-05-24 16:47:00,
2013-05-24 12:02:00,89.7,75.0,30.15,ENE,59,5.0,-999.0,63,-99.99,,,0.00,weatherlink.com 1.10,2013-05-24 17:02:00,
2013-05-24 12:17:00,90.7,77.0,30.15,NW,323,3.0,-999.0,64,-99.99,,,0.00,weatherlink.com 1.10,2013-05-24 17:17:00,
2013-05-24 12:32:00,92.3,76.0,30.15,NNW,327,2.0,-999.0,59,-99.99,,,0.00,weatherlink.com 1.10,2013-05-24 17:32:00,
2013-05-24 12:47:00,91.0,74.0,30.14,SSW,206,0.0,-999.0,58,-99.99,,,0.00,weatherlink.com 1.10,2013-05-24 17:47:00,
2013-05-24 13:02:00,90.7,74.0,30.14,West,272,0.0,-999.0,59,-99.99,,,0.00,weatherlink.com 1.10,2013-05-24 18:02:00,
2013-05-24 13:17:00,90.7,75.0,30.14,NE,46,2.0,-999.0,60,-99.99,,,0.00,weatherlink.com 1.10,2013-05-24 18:17:00,
2013-05-24 13:32:00,91.0,75.0,30.14,East,87,0.0,-999.0,59,-99.99,,,0.00,weatherlink.com 1.10,2013-05-24 18:32:00,
2013-05-24 13:47:00,90.7,75.0,30.14,NNE,27,0.0,-999.0,60,-99.99,,,0.00,weatherlink.com 1.10,2013-05-24 18:47:00,
2013-05-24 14:02:00,91.6,77.0,30.14,NE,43,0.0,-999.0,62,-99.99,,,0.00,weatherlink.com 1.10,2013-05-24 19:02:00,
2013-05-24 14:17:00,93.1,75.0,30.13,NE,43,5.0,-999.0,56,-99.99,,,0.00,weatherlink.com 1.10,2013-05-24 19:17:00,
2013-05-24 14:32:00,93.6,75.0,30.13,NW,317,0.0,-999.0,54,-99.99,,,0.00,weatherlink.com 1.10,2013-05-24 19:32:00,
2013-05-24 14:47:00,91.7,75.0,30.12,NNE,32,1.0,-999.0,58,-99.99,,,0.00,weatherlink.com 1.10,2013-05-24 19:47:00,
2013-05-24 15:02:00,91.1,75.0,30.13,ENE,65,0.0,-999.0,59,-99.99,,,0.00,weatherlink.com 1.10,2013-05-24 20:02:00,
2013-05-24 15:17:00,90.0,74.0,30.12,NE,49,2.0,-999.0,60,-99.99,,,0.00,weatherlink.com 1.10,2013-05-24 20:17:00,
2013-05-24 15:32:00,88.9,76.0,30.12,ENE,59,2.0,-999.0,66,-99.99,,,0.00,weatherlink.com 1.10,2013-05-24 20:32:00,
2013-05-24 15:47:00,88.2,78.0,30.12,ENE,61,3.0,-999.0,72,-99.99,,,0.01,weatherlink.com 1.10,2013-05-24 20:47:00,
2013-05-24 16:02:00,84.8,77.0,30.11,NNW,337,0.0,-999.0,78,-99.99,,,0.07,weatherlink.com 1.10,2013-05-24 21:02:00,
2013-05-24 16:17:00,82.0,77.0,30.11,North,11,0.0,-999.0,85,-99.99,,,0.07,weatherlink.com 1.10,2013-05-24 21:17:00,
2013-05-24 16:32:00,82.0,79.0,30.10,NNE,28,0.0,-999.0,89,-99.99,,,0.07,weatherlink.com 1.10,2013-05-24 21:32:00,
2013-05-24 16:47:00,81.9,78.0,30.09,North,360,0.0,-999.0,89,-99.99,,,0.07,weatherlink.com 1.10,2013-05-24 21:47:00,
2013-05-24 17:02:00,82.2,77.0,30.09,North,360,0.0,-999.0,84,-99.99,,,0.07,weatherlink.com 1.10,2013-05-24 22:02:00,
2013-05-24 17:17:00,83.3,77.0,30.09,ENE,69,4.0,-999.0,82,-99.99,,,0.07,weatherlink.com 1.10,2013-05-24 22:17:00,
2013-05-24 17:32:00,84.3,75.0,30.09,ENE,71,3.0,-999.0,74,-99.99,,,0.07,weatherlink.com 1.10,2013-05-24 22:32:00,
2013-05-24 17:47:00,84.7,74.0,30.09,NE,42,3.0,-999.0,71,-99.99,,,0.07,weatherlink.com 1.10,2013-05-24 22:47:00,
2013-05-24 18:02:00,84.8,73.0,30.09,NE,55,3.0,-999.0,68,-99.99,,,0.07,weatherlink.com 1.10,2013-05-24 23:02:00,
2013-05-24 18:17:00,83.8,73.0,30.09,NE,49,1.0,-999.0,69,-99.99,,,0.07,weatherlink.com 1.10,2013-05-24 23:17:00,
2013-05-24 18:32:00,83.7,73.0,30.09,ENE,70,3.0,-999.0,70,-99.99,,,0.07,weatherlink.com 1.10,2013-05-24 23:32:00,
2013-05-24 18:47:00,84.0,73.0,30.09,East,88,0.0,-999.0,70,-99.99,,,0.07,weatherlink.com 1.10,2013-05-24 23:47:00,
2013-05-24 19:02:00,84.2,74.0,30.10,NE,50,0.0,-999.0,72,-99.99,,,0.07,weatherlink.com 1.10,2013-05-25 00:02:00,
2013-05-24 19:17:00,83.5,73.0,30.11,NE,41,0.0,-999.0,71,-99.99,,,0.07,weatherlink.com 1.10,2013-05-25 00:17:00,
2013-05-24 19:32:00,82.8,73.0,30.11,NE,41,0.0,-999.0,73,-99.99,,,0.07,weatherlink.com 1.10,2013-05-25 00:32:00,
2013-05-24 19:47:00,82.1,74.0,30.12,NE,41,0.0,-999.0,76,-99.99,,,0.07,weatherlink.com 1.10,2013-05-25 00:47:00,
2013-05-24 20:02:00,81.1,74.0,30.12,NE,41,0.0,-999.0,79,-99.99,,,0.07,weatherlink.com 1.10,2013-05-25 01:02:00,
2013-05-24 20:17:00,80.2,74.0,30.12,NE,41,0.0,-999.0,80,-99.99,,,0.07,weatherlink.com 1.10,2013-05-25 01:17:00,
2013-05-24 20:32:00,79.0,73.0,30.12,NE,41,0.0,-999.0,82,-99.99,,,0.07,weatherlink.com 1.10,2013-05-25 01:32:00,
2013-05-24 20:47:00,78.3,73.0,30.13,NE,41,0.0,-999.0,83,-99.99,,,0.07,weatherlink.com 1.10,2013-05-25 01:47:00,
2013-05-24 21:02:00,77.8,73.0,30.13,NE,41,0.0,-999.0,85,-99.99,,,0.07,weatherlink.com 1.10,2013-05-25 02:02:00,
2013-05-24 21:17:00,77.0,72.0,30.13,NE,41,0.0,-999.0,85,-99.99,,,0.07,weatherlink.com 1.10,2013-05-25 02:17:00,
2013-05-24 21:32:00,76.4,72.0,30.13,NE,41,2.0,-999.0,86,-99.99,,,0.07,weatherlink.com 1.10,2013-05-25 02:32:00,
2013-05-24 21:47:00,76.3,72.0,30.14,NE,55,0.0,-999.0,85,-99.99,,,0.07,weatherlink.com 1.10,2013-05-25 02:47:00,
2013-05-24 22:02:00,76.5,71.0,30.14,NE,55,2.0,-999.0,84,-99.99,,,0.07,weatherlink.com 1.10,2013-05-25 03:02:00,
2013-05-24 22:17:00,76.6,71.0,30.14,NE,55,0.0,-999.0,83,-99.99,,,0.07,weatherlink.com 1.10,2013-05-25 03:17:00,
2013-05-24 22:32:00,76.5,71.0,30.15,NE,55,0.0,-999.0,82,-99.99,,,0.07,weatherlink.com 1.10,2013-05-25 03:32:00,
2013-05-24 22:47:00,76.4,71.0,30.15,NE,55,0.0,-999.0,82,-99.99,,,0.07,weatherlink.com 1.10,2013-05-25 03:47:00,
2013-05-24 23:02:00,76.3,70.0,30.15,NE,56,0.0,-999.0,82,-99.99,,,0.07,weatherlink.com 1.10,2013-05-25 04:02:00,
2013-05-24 23:17:00,76.0,70.0,30.15,NE,56,0.0,-999.0,82,-99.99,,,0.07,weatherlink.com 1.10,2013-05-25 04:17:00,
2013-05-24 23:32:00,75.5,70.0,30.15,NE,55,0.0,-999.0,84,-99.99,,,0.07,weatherlink.com 1.10,2013-05-25 04:32:00,
2013-05-24 23:47:00,75.1,70.0,30.15,NE,53,1.0,-999.0,84,-99.99,,,0.07,weatherlink.com 1.10,2013-05-25 04:47:00,